Buoy 52514

sailwx.info

Track history (hours):
 
Tides and Currents Weather Stations Pressure Air Temp Water Temp Dewpoint Dewpoint Depression Visibility Wind Speed Wind Dir Waves Ship Positions

Drifting buoy 52514

Last reported at 2015-Mar-02 23:00 UTC. Time now 2015-Mar-05 20:23 UTC.
Position N 17°25' E 123°24'.

Date/timePositionNaut miles runAvg speedWind from/ knotsBaromVisibWave heightAir tempDewpointWater temp
2015-Mar-02 23:00N 17°25' E 123°24'0 0.0
2015-Mar-02 22:00N 17°25' E 123°24'2 0.8
2015-Mar-02 20:00N 17°25' E 123°23'2 2.3
2015-Mar-02 19:00N 17°24' E 123°20'2 2.1
2015-Mar-02 18:00N 17°24' E 123°18'2 2.1
2015-Mar-02 17:00N 17°24' E 123°20'2 0.7
2015-Mar-02 14:00N 17°24' E 123°18'2 0.4
2015-Mar-02 10:00N 17°23' E 123°16'1 0.6
2015-Mar-02 09:00N 17°24' E 123°17'1 1.1
2015-Mar-02 08:00N 17°23' E 123°16'2 1.9
2015-Mar-02 07:00N 17°23' E 123°14'0 0.0
2015-Mar-02 05:00N 17°23' E 123°14'1 0.3
2015-Mar-02 02:00N 17°23' E 123°13'1 0.2
2015-Mar-01 21:00N 17°23' E 123°12'0 0.0
2015-Mar-01 20:00N 17°23' E 123°12'0 0.1
2015-Mar-01 18:00N 17°23' E 123°12'0 0.0
2015-Mar-01 16:00N 17°23' E 123°12'0 0.0
2015-Mar-01 13:00N 17°23' E 123°12'1 0.3
2015-Mar-01 09:00N 17°24' E 123°12'2 2.2
2015-Mar-01 08:00N 17°25' E 123°10'0 0.0
2015-Mar-01 07:00N 17°25' E 123°10'0 0.0
2015-Mar-01 06:00N 17°25' E 123°10'0 0.0
2015-Mar-01 05:00N 17°25' E 123°10'1 0.3
2015-Mar-01 02:00N 17°26' E 123°09'0 0.0
2015-Mar-01 01:00N 17°26' E 123°09'1 0.7
2015-Mar-01 00:00N 17°25' E 123°09'0 0.1
2015-Feb-28 21:00N 17°25' E 123°09'0 0.4
2015-Feb-28 20:00N 17°25' E 123°09'1 0.2
2015-Feb-28 14:00N 17°24' E 123°08'0 0.0
2015-Feb-28 13:00N 17°24' E 123°08'2 0.5
2015-Feb-28 10:00N 17°23' E 123°09'1 0.8
2015-Feb-28 09:00N 17°23' E 123°10'1 0.6
2015-Feb-28 08:00N 17°23' E 123°09'0 0.0
2015-Feb-28 07:00N 17°23' E 123°09'2 2.2
2015-Feb-28 06:00N 17°24' E 123°07'0 0.0
2015-Feb-28 05:00N 17°24' E 123°07'0 0.1
2015-Feb-28 02:00N 17°23' E 123°07'1 0.2
2015-Feb-27 20:00N 17°22' E 123°07'0 0.2
2015-Feb-27 18:00N 17°22' E 123°07'0 0.2
2015-Feb-27 17:00N 17°22' E 123°07'2 0.4
2015-Feb-27 12:00N 17°20' E 123°06'3 0.8
2015-Feb-27 08:00N 17°17' E 123°07'0 0.1
2015-Feb-27 07:00N 17°17' E 123°07'1 1.0
2015-Feb-27 06:00N 17°16' E 123°07'0 0.0
2015-Feb-27 05:00N 17°16' E 123°07'0 0.0
2015-Feb-27 04:00N 17°16' E 123°07'0 0.4
2015-Feb-27 03:00N 17°16' E 123°06'4 0.7
2015-Feb-26 22:00N 17°13' E 123°06'3 0.6
2015-Feb-26 18:00N 17°11' E 123°04'2 0.3
2015-Feb-26 12:00N 17°10' E 123°02'3 0.9
2015-Feb-26 09:00N 17°09' E 122°60'1 0.9
2015-Feb-26 08:00N 17°09' E 122°60'0 0.1
2015-Feb-26 07:00N 17°08' E 122°60'1 0.3
2015-Feb-26 05:00N 17°08' E 123°00'0 0.0
2015-Feb-26 04:00N 17°08' E 123°00'2 0.8
2015-Feb-26 02:00N 17°07' E 123°01'2 2.4
2015-Feb-26 01:00N 17°04' E 123°01'0 0.0
2015-Feb-26 00:00N 17°04' E 123°01'1 0.5
2015-Feb-25 22:00N 17°03' E 123°01'0 0.1
2015-Feb-25 21:00N 17°03' E 123°02'1 0.6
2015-Feb-25 20:00N 17°03' E 123°02'3 2.9
2015-Feb-25 19:00N 17°00' E 123°03'0 0.0
2015-Feb-25 18:00N 17°00' E 123°03'4 3.5
2015-Feb-25 17:00N 16°57' E 123°05'0 0.0
2015-Feb-25 14:00N 16°57' E 123°05'2 0.9
2015-Feb-25 12:00N 16°56' E 123°06'3 1.5
2015-Feb-25 10:00N 16°53' E 123°07'0 0.0
2015-Feb-25 09:00N 16°53' E 123°07'0 0.2
2015-Feb-25 08:00N 16°53' E 123°07'2 1.0
2015-Feb-25 06:00N 16°51' E 123°08'3 0.8
2015-Feb-25 02:00N 16°48' E 123°08'0 0.0
2015-Feb-25 01:00N 16°48' E 123°08'0 0.0
2015-Feb-25 00:00N 16°48' E 123°08'0 0.0
2015-Feb-24 21:00N 16°48' E 123°08'0 0.0
2015-Feb-24 19:00N 16°48' E 123°08'0 0.2
2015-Feb-24 18:00N 16°48' E 123°08'4 0.8
2015-Feb-24 13:00N 16°45' E 123°10'0 0.0
2015-Feb-24 12:00N 16°45' E 123°10'3 1.3
2015-Feb-24 10:00N 16°43' E 123°12'0 0.0
2015-Feb-24 09:00N 16°43' E 123°12'1 0.6
2015-Feb-24 08:00N 16°43' E 123°12'1 0.5
2015-Feb-24 06:00N 16°42' E 123°13'2 2.0
2015-Feb-24 05:00N 16°41' E 123°14'5 1.3
2015-Feb-24 01:00N 16°36' E 123°16'0 0.0
2015-Feb-24 00:00N 16°36' E 123°16'0 0.0
2015-Feb-23 22:00N 16°36' E 123°16'1 0.6
2015-Feb-23 21:00N 16°35' E 123°16'1 1.3
2015-Feb-23 20:00N 16°34' E 123°15'0 0.2
2015-Feb-23 17:00N 16°34' E 123°15'0 0.0
2015-Feb-23 16:00N 16°34' E 123°15'1 0.7
2015-Feb-23 14:00N 16°33' E 123°15'0 0.0
2015-Feb-23 13:00N 16°33' E 123°15'0 0.1
2015-Feb-23 12:00N 16°33' E 123°15'2 0.6
2015-Feb-23 09:00N 16°32' E 123°17'1 1.1
2015-Feb-23 08:00N 16°31' E 123°18'2 2.0
2015-Feb-23 07:00N 16°29' E 123°18'0 0.0
2015-Feb-23 06:00N 16°29' E 123°18'0 0.0
2015-Feb-23 05:00N 16°29' E 123°18'2 0.7
2015-Feb-23 02:00N 16°28' E 123°20'0 0.3
2015-Feb-23 01:00N 16°28' E 123°20'0 0.0
2015-Feb-23 00:00N 16°28' E 123°20'1 0.7
2015-Feb-22 22:00N 16°27' E 123°19'1 1.0
2015-Feb-22 21:00N 16°26' E 123°19'1 0.9
2015-Feb-22 20:00N 16°25' E 123°19'1 1.2
2015-Feb-22 19:00N 16°25' E 123°17'2 2.0
2015-Feb-22 18:00N 16°23' E 123°19'0 0.0
2015-Feb-22 17:00N 16°23' E 123°19'0 0.1
2015-Feb-22 13:00N 16°23' E 123°19'1 1.1
2015-Feb-22 12:00N 16°24' E 123°20'1 0.2
2015-Feb-22 09:00N 16°23' E 123°21'0 0.3
2015-Feb-22 08:00N 16°23' E 123°21'1 0.5
2015-Feb-22 05:00N 16°21' E 123°21'0 0.1
2015-Feb-22 01:00N 16°22' E 123°21'1 0.2
2015-Feb-21 18:00N 16°21' E 123°22'0 0.0
2015-Feb-21 17:00N 16°21' E 123°22'3 0.4
2015-Feb-21 10:00N 16°20' E 123°25'2 0.5
2015-Feb-21 07:00N 16°19' E 123°25'0 0.0
2015-Feb-21 06:00N 16°19' E 123°25'5 1.3
2015-Feb-21 02:00N 16°19' E 123°31'0 0.0
2015-Feb-21 01:00N 16°19' E 123°31'0 0.0
2015-Feb-21 00:00N 16°19' E 123°31'  
Track history (hours):
 
Tides and Currents Weather Stations Pressure Air Temp Water Temp Dewpoint Dewpoint Depression Visibility Wind Speed Wind Dir Waves Ship Positions

Drifting buoy 52514

Last reported at 2015-Mar-02 23:00 UTC. Time now 2015-Mar-05 20:23 UTC.
Position N 17°25' E 123°24'.

Date/timePositionNaut miles runAvg speedWind from/ knotsBaromVisibWave heightAir tempDewpointWater temp
2015-Mar-02 23:00N 17°25' E 123°24'0 0.0
2015-Mar-02 22:00N 17°25' E 123°24'2 0.8
2015-Mar-02 20:00N 17°25' E 123°23'2 2.3
2015-Mar-02 19:00N 17°24' E 123°20'2 2.1
2015-Mar-02 18:00N 17°24' E 123°18'2 2.1
2015-Mar-02 17:00N 17°24' E 123°20'2 0.7
2015-Mar-02 14:00N 17°24' E 123°18'2 0.4
2015-Mar-02 10:00N 17°23' E 123°16'1 0.6
2015-Mar-02 09:00N 17°24' E 123°17'1 1.1
2015-Mar-02 08:00N 17°23' E 123°16'2 1.9
2015-Mar-02 07:00N 17°23' E 123°14'0 0.0
2015-Mar-02 05:00N 17°23' E 123°14'1 0.3
2015-Mar-02 02:00N 17°23' E 123°13'1 0.2
2015-Mar-01 21:00N 17°23' E 123°12'0 0.0
2015-Mar-01 20:00N 17°23' E 123°12'0 0.1
2015-Mar-01 18:00N 17°23' E 123°12'0 0.0
2015-Mar-01 16:00N 17°23' E 123°12'0 0.0
2015-Mar-01 13:00N 17°23' E 123°12'1 0.3
2015-Mar-01 09:00N 17°24' E 123°12'2 2.2
2015-Mar-01 08:00N 17°25' E 123°10'0 0.0
2015-Mar-01 07:00N 17°25' E 123°10'0 0.0
2015-Mar-01 06:00N 17°25' E 123°10'0 0.0
2015-Mar-01 05:00N 17°25' E 123°10'1 0.3
2015-Mar-01 02:00N 17°26' E 123°09'0 0.0
2015-Mar-01 01:00N 17°26' E 123°09'1 0.7
2015-Mar-01 00:00N 17°25' E 123°09'0 0.1
2015-Feb-28 21:00N 17°25' E 123°09'0 0.4
2015-Feb-28 20:00N 17°25' E 123°09'1 0.2
2015-Feb-28 14:00N 17°24' E 123°08'0 0.0
2015-Feb-28 13:00N 17°24' E 123°08'2 0.5
2015-Feb-28 10:00N 17°23' E 123°09'1 0.8
2015-Feb-28 09:00N 17°23' E 123°10'1 0.6
2015-Feb-28 08:00N 17°23' E 123°09'0 0.0
2015-Feb-28 07:00N 17°23' E 123°09'2 2.2
2015-Feb-28 06:00N 17°24' E 123°07'0 0.0
2015-Feb-28 05:00N 17°24' E 123°07'0 0.1
2015-Feb-28 02:00N 17°23' E 123°07'1 0.2
2015-Feb-27 20:00N 17°22' E 123°07'0 0.2
2015-Feb-27 18:00N 17°22' E 123°07'0 0.2
2015-Feb-27 17:00N 17°22' E 123°07'2 0.4
2015-Feb-27 12:00N 17°20' E 123°06'3 0.8
2015-Feb-27 08:00N 17°17' E 123°07'0 0.1
2015-Feb-27 07:00N 17°17' E 123°07'1 1.0
2015-Feb-27 06:00N 17°16' E 123°07'0 0.0
2015-Feb-27 05:00N 17°16' E 123°07'0 0.0
2015-Feb-27 04:00N 17°16' E 123°07'0 0.4
2015-Feb-27 03:00N 17°16' E 123°06'4 0.7
2015-Feb-26 22:00N 17°13' E 123°06'3 0.6
2015-Feb-26 18:00N 17°11' E 123°04'2 0.3
2015-Feb-26 12:00N 17°10' E 123°02'3 0.9
2015-Feb-26 09:00N 17°09' E 122°60'1 0.9
2015-Feb-26 08:00N 17°09' E 122°60'0 0.1
2015-Feb-26 07:00N 17°08' E 122°60'1 0.3
2015-Feb-26 05:00N 17°08' E 123°00'0 0.0
2015-Feb-26 04:00N 17°08' E 123°00'2 0.8
2015-Feb-26 02:00N 17°07' E 123°01'2 2.4
2015-Feb-26 01:00N 17°04' E 123°01'0 0.0
2015-Feb-26 00:00N 17°04' E 123°01'1 0.5
2015-Feb-25 22:00N 17°03' E 123°01'0 0.1
2015-Feb-25 21:00N 17°03' E 123°02'1 0.6
2015-Feb-25 20:00N 17°03' E 123°02'3 2.9
2015-Feb-25 19:00N 17°00' E 123°03'0 0.0
2015-Feb-25 18:00N 17°00' E 123°03'4 3.5
2015-Feb-25 17:00N 16°57' E 123°05'0 0.0
2015-Feb-25 14:00N 16°57' E 123°05'2 0.9
2015-Feb-25 12:00N 16°56' E 123°06'3 1.5
2015-Feb-25 10:00N 16°53' E 123°07'0 0.0
2015-Feb-25 09:00N 16°53' E 123°07'0 0.2
2015-Feb-25 08:00N 16°53' E 123°07'2 1.0
2015-Feb-25 06:00N 16°51' E 123°08'3 0.8
2015-Feb-25 02:00N 16°48' E 123°08'0 0.0
2015-Feb-25 01:00N 16°48' E 123°08'0 0.0
2015-Feb-25 00:00N 16°48' E 123°08'0 0.0
2015-Feb-24 21:00N 16°48' E 123°08'0 0.0
2015-Feb-24 19:00N 16°48' E 123°08'0 0.2
2015-Feb-24 18:00N 16°48' E 123°08'4 0.8
2015-Feb-24 13:00N 16°45' E 123°10'0 0.0
2015-Feb-24 12:00N 16°45' E 123°10'3 1.3
2015-Feb-24 10:00N 16°43' E 123°12'0 0.0
2015-Feb-24 09:00N 16°43' E 123°12'1 0.6
2015-Feb-24 08:00N 16°43' E 123°12'1 0.5
2015-Feb-24 06:00N 16°42' E 123°13'2 2.0
2015-Feb-24 05:00N 16°41' E 123°14'5 1.3
2015-Feb-24 01:00N 16°36' E 123°16'0 0.0
2015-Feb-24 00:00N 16°36' E 123°16'0 0.0
2015-Feb-23 22:00N 16°36' E 123°16'1 0.6
2015-Feb-23 21:00N 16°35' E 123°16'1 1.3
2015-Feb-23 20:00N 16°34' E 123°15'0 0.2
2015-Feb-23 17:00N 16°34' E 123°15'0 0.0
2015-Feb-23 16:00N 16°34' E 123°15'1 0.7
2015-Feb-23 14:00N 16°33' E 123°15'0 0.0
2015-Feb-23 13:00N 16°33' E 123°15'0 0.1
2015-Feb-23 12:00N 16°33' E 123°15'2 0.6
2015-Feb-23 09:00N 16°32' E 123°17'1 1.1
2015-Feb-23 08:00N 16°31' E 123°18'2 2.0
2015-Feb-23 07:00N 16°29' E 123°18'0 0.0
2015-Feb-23 06:00N 16°29' E 123°18'0 0.0
2015-Feb-23 05:00N 16°29' E 123°18'2 0.7
2015-Feb-23 02:00N 16°28' E 123°20'0 0.3
2015-Feb-23 01:00N 16°28' E 123°20'0 0.0
2015-Feb-23 00:00N 16°28' E 123°20'1 0.7
2015-Feb-22 22:00N 16°27' E 123°19'1 1.0
2015-Feb-22 21:00N 16°26' E 123°19'1 0.9
2015-Feb-22 20:00N 16°25' E 123°19'1 1.2
2015-Feb-22 19:00N 16°25' E 123°17'2 2.0
2015-Feb-22 18:00N 16°23' E 123°19'0 0.0
2015-Feb-22 17:00N 16°23' E 123°19'0 0.1
2015-Feb-22 13:00N 16°23' E 123°19'1 1.1
2015-Feb-22 12:00N 16°24' E 123°20'1 0.2
2015-Feb-22 09:00N 16°23' E 123°21'0 0.3
2015-Feb-22 08:00N 16°23' E 123°21'1 0.5
2015-Feb-22 05:00N 16°21' E 123°21'0 0.1
2015-Feb-22 01:00N 16°22' E 123°21'1 0.2
2015-Feb-21 18:00N 16°21' E 123°22'0 0.0
2015-Feb-21 17:00N 16°21' E 123°22'3 0.4
2015-Feb-21 10:00N 16°20' E 123°25'2 0.5
2015-Feb-21 07:00N 16°19' E 123°25'0 0.0
2015-Feb-21 06:00N 16°19' E 123°25'5 1.3
2015-Feb-21 02:00N 16°19' E 123°31'0 0.0
2015-Feb-21 01:00N 16°19' E 123°31'0 0.0
2015-Feb-21 00:00N 16°19' E 123°31'  

Dump ship's entire track history